createdAt,value
2016-12-08T00:00:47.825Z,0
2016-12-08T00:01:48.087Z,0
2016-12-08T00:02:48.046Z,0
2016-12-08T00:03:47.693Z,0
2016-12-08T00:04:48.262Z,0
2016-12-08T00:05:47.917Z,0
2016-12-08T00:06:47.873Z,0
2016-12-08T00:07:47.828Z,0
2016-12-08T00:08:47.785Z,0
2016-12-08T00:09:48.055Z,0
2016-12-08T00:10:47.700Z,0
2016-12-08T00:11:47.660Z,0
2016-12-08T00:12:47.629Z,0
2016-12-08T00:13:47.880Z,0
2016-12-08T00:14:47.531Z,0
2016-12-08T00:15:47.797Z,0
2016-12-08T00:16:47.452Z,0
2016-12-08T00:17:47.701Z,0
2016-12-08T00:18:47.664Z,0
2016-12-08T00:19:47.321Z,0
2016-12-08T00:20:47.281Z,0
2016-12-08T00:21:46.932Z,0
2016-12-08T00:22:47.497Z,0
2016-12-08T00:23:47.145Z,0
2016-12-08T00:24:47.415Z,0
2016-12-08T00:25:47.068Z,0
2016-12-08T00:26:47.024Z,0
2016-12-08T00:27:46.982Z,0
2016-12-08T00:28:46.635Z,0
2016-12-08T00:29:46.896Z,0
2016-12-08T00:30:46.554Z,0
2016-12-08T00:31:46.807Z,0
2016-12-08T00:32:46.465Z,0
2016-12-08T00:33:47.021Z,0
2016-12-08T00:34:46.987Z,0
2016-12-08T00:35:46.338Z,0
2016-12-08T00:36:46.293Z,0
2016-12-08T00:37:46.860Z,0
2016-12-08T00:38:46.520Z,0
2016-12-08T00:39:46.468Z,0
2016-12-08T00:40:46.423Z,0
2016-12-08T00:41:46.392Z,0
2016-12-08T00:42:46.344Z,0
2016-12-08T00:43:46.303Z,0
2016-12-08T00:44:46.258Z,0
2016-12-08T00:45:46.517Z,0
2016-12-08T00:46:45.871Z,0
2016-12-08T00:47:45.820Z,0
2016-12-08T00:48:46.081Z,0
2016-12-08T00:49:46.349Z,0
2016-12-08T00:50:45.999Z,0
2016-12-08T00:51:45.962Z,0
2016-12-08T00:52:46.217Z,0
2016-12-08T00:53:46.172Z,0
2016-12-08T00:54:45.830Z,0
2016-12-08T00:55:45.482Z,0
2016-12-08T00:56:45.746Z,0
2016-12-08T00:57:45.697Z,0
2016-12-08T00:58:45.657Z,0
2016-12-08T00:59:45.608Z,0
2016-12-08T01:00:45.871Z,0
2016-12-08T01:01:45.230Z,0
2016-12-08T01:02:45.790Z,0
2016-12-08T01:03:45.750Z,0
2016-12-08T01:04:45.402Z,0
2016-12-08T01:05:45.664Z,0
2016-12-08T01:06:45.616Z,0
2016-12-08T01:07:44.970Z,0
2016-12-08T01:08:44.927Z,0
2016-12-08T01:09:45.487Z,0
2016-12-08T01:10:45.443Z,0
2016-12-08T01:11:44.804Z,0
2016-12-08T01:12:45.394Z,0
2016-12-08T01:13:45.020Z,0
2016-12-08T01:14:44.973Z,0
2016-12-08T01:15:44.629Z,0
2016-12-08T01:16:45.192Z,0
2016-12-08T01:17:44.849Z,0
2016-12-08T01:18:44.495Z,0
2016-12-08T01:19:45.063Z,0
2016-12-08T01:20:45.028Z,0
2016-12-08T01:21:44.978Z,0
2016-12-08T01:22:44.934Z,0
2016-12-08T01:23:44.606Z,0
2016-12-08T01:24:44.244Z,0
2016-12-08T01:25:44.513Z,0
2016-12-08T01:26:44.157Z,0
2016-12-08T01:27:44.721Z,0
2016-12-08T01:28:44.681Z,0
2016-12-08T01:29:44.340Z,0
2016-12-08T01:30:44.592Z,0
2016-12-08T01:31:44.250Z,0
2016-12-08T01:32:44.208Z,0
2016-12-08T01:33:44.467Z,0
2016-12-08T01:34:43.826Z,0
2016-12-08T01:35:44.385Z,0
2016-12-08T01:36:44.035Z,0
2016-12-08T01:37:43.997Z,0
2016-12-08T01:38:44.254Z,0
2016-12-08T01:39:44.204Z,0
2016-12-08T01:40:44.171Z,0
2016-12-08T01:41:43.231Z,0
2016-12-08T01:42:43.786Z,0
2016-12-08T01:43:44.045Z,0
2016-12-08T01:44:44.001Z,0
2016-12-08T01:45:43.052Z,0
2016-12-08T01:46:43.608Z,0
2016-12-08T01:47:43.869Z,0
2016-12-08T01:48:43.526Z,0
2016-12-08T01:49:43.176Z,0
2016-12-08T01:50:43.439Z,0
2016-12-08T01:51:43.724Z,0
2016-12-08T01:52:43.355Z,0
2016-12-08T01:53:43.618Z,0
2016-12-08T01:54:43.571Z,0
2016-12-08T01:55:43.542Z,0
2016-12-08T01:56:42.581Z,0
2016-12-08T01:57:43.167Z,0
2016-12-08T01:58:43.401Z,0
2016-12-08T01:59:43.053Z,0
2016-12-08T02:00:42.733Z,0
2016-12-08T02:01:42.666Z,0
2016-12-08T02:02:42.926Z,0
2016-12-08T02:03:42.887Z,0
2016-12-08T02:04:42.839Z,0
2016-12-08T02:05:42.795Z,0
2016-12-08T02:06:42.761Z,0
2016-12-08T02:07:42.711Z,0
2016-12-08T02:08:42.979Z,0
2016-12-08T02:09:42.328Z,0
2016-12-08T02:10:42.582Z,0
2016-12-08T02:11:42.541Z,0
2016-12-08T02:12:42.798Z,0
2016-12-08T02:13:42.463Z,0
2016-12-08T02:14:42.716Z,0
2016-12-08T02:15:42.670Z,0
2016-12-08T02:16:42.330Z,0
2016-12-08T02:17:42.285Z,0
2016-12-08T02:18:42.237Z,0
2016-12-08T02:19:42.500Z,0
2016-12-08T02:20:42.453Z,0
2016-12-08T02:21:42.115Z,0
2016-12-08T02:22:42.370Z,0
2016-12-08T02:23:42.026Z,0
2016-12-08T02:24:41.686Z,0
2016-12-08T02:25:41.651Z,0
2016-12-08T02:26:42.198Z,0
2016-12-08T02:27:41.552Z,0
2016-12-08T02:28:41.849Z,0
2016-12-08T02:29:42.072Z,0
2016-12-08T02:30:41.725Z,0
2016-12-08T02:31:41.985Z,0
2016-12-08T02:32:41.942Z,0
2016-12-08T02:33:41.599Z,0
2016-12-08T02:34:41.560Z,0
2016-12-08T02:35:41.521Z,0
2016-12-08T02:36:41.774Z,0
2016-12-08T02:37:41.430Z,0
2016-12-08T02:38:41.881Z,0
2016-12-08T02:39:41.645Z,0
2016-12-08T02:40:41.300Z,0
2016-12-08T02:41:41.262Z,0
2016-12-08T02:42:41.215Z,0
2016-12-08T02:43:40.598Z,0
2016-12-08T02:44:41.129Z,0
2016-12-08T02:45:41.085Z,0
2016-12-08T02:46:41.343Z,0
2016-12-08T02:47:41.004Z,0
2016-12-08T02:48:40.956Z,0
2016-12-08T02:49:41.242Z,0
2016-12-08T02:50:41.176Z,0
2016-12-08T02:51:40.525Z,0
2016-12-08T02:52:41.091Z,0
2016-12-08T02:53:41.051Z,0
2016-12-08T02:54:41.004Z,0
2016-12-08T02:55:40.968Z,0
2016-12-08T02:56:40.621Z,0
2016-12-08T02:57:40.570Z,0
2016-12-08T02:58:40.837Z,0
2016-12-08T02:59:40.190Z,0
2016-12-08T03:00:40.750Z,0
2016-12-08T03:01:40.110Z,0
2016-12-08T03:02:40.058Z,0
2016-12-08T03:03:40.316Z,0
2016-12-08T03:04:40.277Z,0
2016-12-08T03:05:39.933Z,0
2016-12-08T03:06:40.494Z,0
2016-12-08T03:07:40.152Z,0
2016-12-08T03:08:39.827Z,0
2016-12-08T03:09:40.064Z,0
2016-12-08T03:10:39.111Z,0
2016-12-08T03:11:40.279Z,0
2016-12-08T03:12:40.247Z,0
2016-12-08T03:13:40.194Z,0
2016-12-08T03:14:40.151Z,0
2016-12-08T03:15:39.201Z,0
2016-12-08T03:16:39.768Z,0
2016-12-08T03:17:39.419Z,0
2016-12-08T03:18:39.402Z,0
2016-12-08T03:19:39.637Z,0
2016-12-08T03:20:39.287Z,0
2016-12-08T03:21:39.251Z,0
2016-12-08T03:22:38.906Z,0
2016-12-08T03:23:39.481Z,0
2016-12-08T03:24:39.426Z,0
2016-12-08T03:25:39.382Z,0
2016-12-08T03:26:39.341Z,0
2016-12-08T03:27:39.328Z,0
2016-12-08T03:28:39.551Z,0
2016-12-08T03:29:39.514Z,0
2016-12-08T03:30:39.169Z,0
2016-12-08T03:31:38.828Z,0
2016-12-08T03:32:38.483Z,0
2016-12-08T03:33:39.346Z,0
2016-12-08T03:34:39.303Z,0
2016-12-08T03:35:38.961Z,0
2016-12-08T03:36:38.919Z,0
2016-12-08T03:37:38.873Z,0
2016-12-08T03:38:38.825Z,0
2016-12-08T03:39:39.086Z,0
2016-12-08T03:40:39.047Z,0
2016-12-08T03:41:39.004Z,0
2016-12-08T03:42:38.655Z,0
2016-12-08T03:43:38.612Z,0
2016-12-08T03:44:38.565Z,0
2016-12-08T03:45:38.227Z,0
2016-12-08T03:46:38.520Z,0
2016-12-08T03:47:38.467Z,0
2016-12-08T03:48:38.393Z,0
2016-12-08T03:49:38.352Z,0
2016-12-08T03:50:38.616Z,0
2016-12-08T03:51:38.299Z,0
2016-12-08T03:52:37.928Z,0
2016-12-08T03:53:37.884Z,0
2016-12-08T03:54:38.439Z,0
2016-12-08T03:55:38.102Z,0
2016-12-08T03:56:38.064Z,0
2016-12-08T03:57:37.719Z,0
2016-12-08T03:58:38.276Z,0
2016-12-08T03:59:38.227Z,0
2016-12-08T04:00:37.889Z,0
2016-12-08T04:01:37.844Z,0
2016-12-08T04:02:38.102Z,0
2016-12-08T04:03:38.060Z,0
2016-12-08T04:04:37.719Z,0
2016-12-08T04:05:36.763Z,0
2016-12-08T04:06:37.631Z,0
2016-12-08T04:07:37.893Z,0
2016-12-08T04:08:37.544Z,0
2016-12-08T04:09:37.222Z,0
2016-12-08T04:10:37.461Z,0
2016-12-08T04:11:37.419Z,0
2016-12-08T04:12:36.769Z,0
2016-12-08T04:13:36.728Z,0
2016-12-08T04:14:36.989Z,0
2016-12-08T04:15:37.548Z,0
2016-12-08T04:16:37.237Z,0
2016-12-08T04:17:37.464Z,0
2016-12-08T04:18:36.211Z,0
2016-12-08T04:19:37.383Z,0
2016-12-08T04:20:37.032Z,0
2016-12-08T04:21:37.286Z,0
2016-12-08T04:22:37.250Z,0
2016-12-08T04:23:36.903Z,0
2016-12-08T04:24:36.861Z,0
2016-12-08T04:25:36.509Z,0
2016-12-08T04:26:35.887Z,0
2016-12-08T04:27:36.732Z,0
2016-12-08T04:28:36.994Z,0
2016-12-08T04:29:36.951Z,0
2016-12-08T04:30:36.907Z,0
2016-12-08T04:31:36.562Z,0
2016-12-08T04:32:36.223Z,0
2016-12-08T04:33:36.783Z,0
2016-12-08T04:34:36.464Z,0
2016-12-08T04:35:36.394Z,0
2016-12-08T04:36:36.657Z,0
2016-12-08T04:37:36.006Z,0
2016-12-08T04:38:36.572Z,0
2016-12-08T04:39:36.529Z,0
2016-12-08T04:40:35.873Z,0
2016-12-08T04:41:36.153Z,0
2016-12-08T04:42:35.797Z,0
2016-12-08T04:43:36.362Z,0
2016-12-08T04:44:35.708Z,0
2016-12-08T04:45:36.268Z,0
2016-12-08T04:46:35.931Z,0
2016-12-08T04:47:35.886Z,0
2016-12-08T04:48:36.172Z,0
2016-12-08T04:49:35.801Z,0
2016-12-08T04:50:35.756Z,0
2016-12-08T04:51:35.709Z,0
2016-12-08T04:52:35.368Z,0
2016-12-08T04:53:35.630Z,0
2016-12-08T04:54:35.886Z,0
2016-12-08T04:55:35.240Z,0
2016-12-08T04:56:35.498Z,0
2016-12-08T04:57:35.763Z,0
2016-12-08T04:58:35.421Z,0
2016-12-08T04:59:35.385Z,0
2016-12-08T05:00:35.326Z,0
2016-12-08T05:01:35.585Z,0
2016-12-08T05:02:35.238Z,0
2016-12-08T05:03:35.203Z,0
2016-12-08T05:04:34.862Z,0
2016-12-08T05:05:35.416Z,0
2016-12-08T05:06:35.376Z,0
2016-12-08T05:07:35.028Z,0
2016-12-08T05:08:34.686Z,0
2016-12-08T05:09:35.242Z,0
2016-12-08T05:10:34.596Z,0
2016-12-08T05:11:34.861Z,0
2016-12-08T05:12:35.121Z,0
2016-12-08T05:13:34.170Z,0
2016-12-08T05:14:35.033Z,0
2016-12-08T05:15:34.382Z,0
2016-12-08T05:16:34.647Z,0
2016-12-08T05:17:34.606Z,0
2016-12-08T05:18:34.859Z,0
2016-12-08T05:19:34.516Z,0
2016-12-08T05:20:34.778Z,0
2016-12-08T05:21:34.435Z,0
2016-12-08T05:22:34.699Z,0
2016-12-08T05:23:34.350Z,0
2016-12-08T05:24:34.609Z,0
2016-12-08T05:25:34.272Z,0
2016-12-08T05:26:34.234Z,0
2016-12-08T05:27:34.482Z,0
2016-12-08T05:28:33.835Z,0
2016-12-08T05:29:34.397Z,0
2016-12-08T05:30:34.050Z,0
2016-12-08T05:31:33.704Z,0
2016-12-08T05:32:33.967Z,0
2016-12-08T05:33:33.953Z,0
2016-12-08T05:34:34.180Z,0
2016-12-08T05:35:33.840Z,0
2016-12-08T05:36:33.797Z,0
2016-12-08T05:37:33.753Z,0
2016-12-08T05:38:33.708Z,0
2016-12-08T05:39:33.365Z,0
2016-12-08T05:40:33.625Z,0
2016-12-08T05:41:33.885Z,0
2016-12-08T05:42:33.541Z,0
2016-12-08T05:43:33.798Z,0
2016-12-08T05:44:33.455Z,0
2016-12-08T05:45:33.412Z,0
2016-12-08T05:46:33.377Z,0
2016-12-08T05:47:33.630Z,0
2016-12-08T05:48:33.592Z,0
2016-12-08T05:49:33.241Z,0
2016-12-08T05:50:33.196Z,0
2016-12-08T05:51:33.151Z,0
2016-12-08T05:52:33.458Z,0
2016-12-08T05:53:33.375Z,0
2016-12-08T05:54:33.330Z,0
2016-12-08T05:55:32.981Z,0
2016-12-08T05:56:33.243Z,0
2016-12-08T05:57:32.904Z,0
2016-12-08T05:58:32.550Z,0
2016-12-08T05:59:33.111Z,0
2016-12-08T06:00:33.072Z,0
2016-12-08T06:01:33.028Z,0
2016-12-08T06:02:32.077Z,0
2016-12-08T06:03:32.640Z,0
2016-12-08T06:04:32.941Z,0
2016-12-08T06:05:32.554Z,0
2016-12-08T06:06:32.510Z,0
2016-12-08T06:07:32.168Z,0
2016-12-08T06:08:32.430Z,0
2016-12-08T06:09:32.082Z,0
2016-12-08T06:10:32.357Z,0
2016-12-08T06:11:32.599Z,0
2016-12-08T06:12:32.567Z,0
2016-12-08T06:13:32.523Z,0
2016-12-08T06:14:32.177Z,0
2016-12-08T06:15:32.449Z,0
2016-12-08T06:16:32.091Z,0
2016-12-08T06:17:32.041Z,0
2016-12-08T06:18:32.010Z,0
2016-12-08T06:19:32.263Z,0
2016-12-08T06:20:32.215Z,0
2016-12-08T06:21:32.176Z,0
2016-12-08T06:22:31.532Z,0
2016-12-08T06:23:31.488Z,0
2016-12-08T06:24:31.748Z,0
2016-12-08T06:25:31.400Z,0
2016-12-08T06:26:31.661Z,0
2016-12-08T06:27:31.924Z,0
2016-12-08T06:28:31.876Z,0
2016-12-08T06:29:31.833Z,0
2016-12-08T06:30:31.487Z,0
2016-12-08T06:31:31.447Z,0
2016-12-08T06:32:31.712Z,0
2016-12-08T06:33:31.058Z,0
2016-12-08T06:34:31.619Z,0
2016-12-08T06:35:30.669Z,0
2016-12-08T06:36:31.536Z,0
2016-12-08T06:37:31.191Z,0
2016-12-08T06:38:31.448Z,0
2016-12-08T06:39:31.409Z,0
2016-12-08T06:40:30.459Z,0
2016-12-08T06:41:31.328Z,0
2016-12-08T06:42:30.675Z,0
2016-12-08T06:43:31.237Z,0
2016-12-08T06:44:30.889Z,0
2016-12-08T06:45:30.248Z,0
2016-12-08T06:46:31.139Z,0
2016-12-08T06:47:30.764Z,0
2016-12-08T06:48:30.420Z,0
2016-12-08T06:49:30.679Z,0
2016-12-08T06:50:30.338Z,0
2016-12-08T06:51:30.601Z,0
2016-12-08T06:52:30.855Z,0
2016-12-08T06:53:30.806Z,0
2016-12-08T06:54:30.476Z,0
2016-12-08T06:55:30.724Z,0
2016-12-08T06:56:30.377Z,0
2016-12-08T06:57:30.337Z,0
2016-12-08T06:58:29.996Z,0
2016-12-08T06:59:30.554Z,0
2016-12-08T07:00:30.517Z,0
2016-12-08T07:01:29.866Z,0
2016-12-08T07:02:30.421Z,0
2016-12-08T07:03:30.392Z,0
2016-12-08T07:04:30.037Z,0
2016-12-08T07:05:29.997Z,0
2016-12-08T07:06:29.657Z,0
2016-12-08T07:07:29.907Z,5
2016-12-08T07:08:29.875Z,5
2016-12-08T07:09:29.819Z,5
2016-12-08T07:10:29.179Z,5
2016-12-08T07:11:29.133Z,5
2016-12-08T07:12:30.001Z,5
2016-12-08T07:13:29.360Z,5
2016-12-08T07:14:29.915Z,5
2016-12-08T07:15:29.264Z,5
2016-12-08T07:16:29.829Z,5
2016-12-08T07:17:29.483Z,5
2016-12-08T07:18:29.440Z,10
2016-12-08T07:19:29.392Z,10
2016-12-08T07:20:29.350Z,10
2016-12-08T07:21:29.305Z,10
2016-12-08T07:22:29.302Z,10
2016-12-08T07:23:28.924Z,10
2016-12-08T07:24:29.180Z,10
2016-12-08T07:25:29.454Z,10
2016-12-08T07:26:29.100Z,10
2016-12-08T07:27:29.082Z,10
2016-12-08T07:28:28.707Z,10
2016-12-08T07:29:29.273Z,15
2016-12-08T07:30:29.220Z,15
2016-12-08T07:31:29.184Z,15
2016-12-08T07:32:28.839Z,15
2016-12-08T07:33:29.095Z,15
2016-12-08T07:34:28.452Z,15
2016-12-08T07:35:28.721Z,15
2016-12-08T07:36:28.976Z,15
2016-12-08T07:37:28.627Z,15
2016-12-08T07:38:28.296Z,20
2016-12-08T07:39:28.553Z,20
2016-12-08T07:40:28.794Z,20
2016-12-08T07:41:28.760Z,20
2016-12-08T07:42:28.413Z,20
2016-12-08T07:43:28.064Z,20
2016-12-08T07:44:27.730Z,20
2016-12-08T07:45:28.591Z,15
2016-12-08T07:46:27.941Z,15
2016-12-08T07:47:28.233Z,20
2016-12-08T07:48:27.856Z,20
2016-12-08T07:49:28.413Z,25
2016-12-08T07:50:28.068Z,25
2016-12-08T07:51:28.031Z,25
2016-12-08T07:52:28.292Z,25
2016-12-08T07:53:28.254Z,25
2016-12-08T07:54:27.917Z,30
2016-12-08T07:55:28.183Z,30
2016-12-08T07:56:27.511Z,35
2016-12-08T07:57:28.090Z,35
2016-12-08T07:58:27.740Z,35
2016-12-08T07:59:27.097Z,35
2016-12-08T08:00:27.359Z,35
2016-12-08T08:01:27.350Z,35
2016-12-08T08:02:27.264Z,35
2016-12-08T08:03:27.531Z,40
2016-12-08T08:04:27.488Z,40
2016-12-08T08:05:27.142Z,45
2016-12-08T08:06:27.097Z,45
2016-12-08T08:07:27.657Z,45
2016-12-08T08:08:27.611Z,35
2016-12-08T08:09:26.968Z,35
2016-12-08T08:10:27.229Z,35
2016-12-08T08:11:27.490Z,40
2016-12-08T08:12:27.143Z,40
2016-12-08T08:13:26.500Z,50
2016-12-08T08:14:27.373Z,50
2016-12-08T08:15:27.021Z,50
2016-12-08T08:16:26.974Z,50
2016-12-08T08:17:27.233Z,50
2016-12-08T08:18:26.598Z,50
2016-12-08T08:19:26.542Z,50
2016-12-08T08:20:26.509Z,50
2016-12-08T08:21:26.781Z,55
2016-12-08T08:22:27.038Z,55
2016-12-08T08:23:26.686Z,55
2016-12-08T08:24:26.636Z,55
2016-12-08T08:25:26.300Z,50
2016-12-08T08:26:26.248Z,55
2016-12-08T08:27:26.225Z,65
2016-12-08T08:28:26.463Z,75
2016-12-08T08:29:26.420Z,70
2016-12-08T08:30:26.375Z,65
2016-12-08T08:31:26.656Z,60
2016-12-08T08:32:25.687Z,55
2016-12-08T08:33:25.941Z,60
2016-12-08T08:34:26.211Z,65
2016-12-08T08:35:25.860Z,65
2016-12-08T08:36:26.425Z,70
2016-12-08T08:37:26.085Z,70
2016-12-08T08:38:26.346Z,65
2016-12-08T08:39:25.999Z,65
2016-12-08T08:40:26.252Z,60
2016-12-08T08:41:26.207Z,60
2016-12-08T08:42:25.865Z,55
2016-12-08T08:43:25.532Z,55
2016-12-08T08:44:25.775Z,55
2016-12-08T08:45:25.741Z,55
2016-12-08T08:46:25.996Z,55
2016-12-08T08:47:25.948Z,65
2016-12-08T08:48:25.306Z,70
2016-12-08T08:49:25.874Z,70
2016-12-08T08:50:25.530Z,70
2016-12-08T08:51:25.484Z,70
2016-12-08T08:52:25.746Z,65
2016-12-08T08:53:25.396Z,65
2016-12-08T08:54:25.055Z,65
2016-12-08T08:55:25.623Z,70
2016-12-08T08:56:25.267Z,70
2016-12-08T08:57:25.231Z,75
2016-12-08T08:58:25.483Z,80
2016-12-08T08:59:25.446Z,75
2016-12-08T09:00:25.407Z,75
2016-12-08T09:01:25.366Z,75
2016-12-08T09:02:24.719Z,70
2016-12-08T09:03:24.978Z,75
2016-12-08T09:04:25.236Z,80
2016-12-08T09:05:24.898Z,80
2016-12-08T09:06:25.164Z,75
2016-12-08T09:07:24.203Z,75
2016-12-08T09:08:24.467Z,80
2016-12-08T09:09:25.028Z,80
2016-12-08T09:10:24.388Z,80
2016-12-08T09:11:24.638Z,80
2016-12-08T09:12:24.593Z,80
2016-12-08T09:13:24.255Z,80
2016-12-08T09:14:23.923Z,80
2016-12-08T09:15:24.775Z,75
2016-12-08T09:16:24.431Z,75
2016-12-08T09:17:24.392Z,75
2016-12-08T09:18:24.653Z,75
2016-12-08T09:19:24.303Z,75
2016-12-08T09:20:24.560Z,75
2016-12-08T09:21:23.616Z,80
2016-12-08T09:22:24.483Z,80
2016-12-08T09:23:24.132Z,85
2016-12-08T09:24:23.491Z,90
2016-12-08T09:25:24.052Z,95
2016-12-08T09:26:24.005Z,100
2016-12-08T09:27:24.270Z,100
2016-12-08T09:28:23.926Z,100
2016-12-08T09:29:24.187Z,100
2016-12-08T09:30:23.540Z,100
2016-12-08T09:31:24.102Z,100
2016-12-08T09:32:23.157Z,105
2016-12-08T09:33:23.715Z,105
2016-12-08T09:34:23.674Z,110
2016-12-08T09:35:23.633Z,105
2016-12-08T09:36:23.894Z,100
2016-12-08T09:37:22.969Z,95
2016-12-08T09:38:23.805Z,95
2016-12-08T09:39:23.459Z,95
2016-12-08T09:40:23.415Z,95
2016-12-08T09:41:23.377Z,95
2016-12-08T09:42:23.653Z,95
2016-12-08T09:43:23.293Z,95
2016-12-08T09:44:23.249Z,95
2016-12-08T09:45:22.909Z,100
2016-12-08T09:46:23.168Z,105
2016-12-08T09:47:23.426Z,110
2016-12-08T09:48:23.086Z,115
2016-12-08T09:49:23.038Z,120
2016-12-08T09:50:23.301Z,125
2016-12-08T09:51:23.268Z,130
2016-12-08T09:52:22.919Z,140
2016-12-08T09:53:22.873Z,145
2016-12-08T09:54:22.826Z,145
2016-12-08T09:55:22.788Z,150
2016-12-08T09:56:22.748Z,150
2016-12-08T09:57:23.015Z,145
2016-12-08T09:58:22.368Z,145
2016-12-08T09:59:22.323Z,150
2016-12-08T10:00:22.281Z,155
2016-12-08T10:01:22.844Z,155
2016-12-08T10:02:22.191Z,150
2016-12-08T10:03:22.461Z,150
2016-12-08T10:04:22.709Z,160
2016-12-08T10:05:22.371Z,165
2016-12-08T10:06:22.323Z,170
2016-12-08T10:07:22.289Z,180
2016-12-08T10:08:22.247Z,185
2016-12-08T10:09:22.503Z,175
2016-12-08T10:10:21.857Z,165
2016-12-08T10:11:22.424Z,155
2016-12-08T10:12:21.782Z,155
2016-12-08T10:13:22.038Z,155
2016-12-08T10:14:21.389Z,155
2016-12-08T10:15:21.958Z,170
2016-12-08T10:16:21.609Z,165
2016-12-08T10:17:21.876Z,155
2016-12-08T10:18:22.132Z,150
2016-12-08T10:19:22.088Z,155
2016-12-08T10:20:22.051Z,155
2016-12-08T10:21:21.706Z,155
2016-12-08T10:22:21.989Z,155
2016-12-08T10:23:21.926Z,155
2016-12-08T10:24:21.917Z,150
2016-12-08T10:25:21.235Z,150
2016-12-08T10:26:21.495Z,150
2016-12-08T10:27:21.456Z,155
2016-12-08T10:28:21.715Z,150
2016-12-08T10:29:21.373Z,150
2016-12-08T10:30:21.327Z,150
2016-12-08T10:31:21.293Z,145
2016-12-08T10:32:20.957Z,145
2016-12-08T10:33:20.905Z,145
2016-12-08T10:34:20.866Z,145
2016-12-08T10:35:20.823Z,145
2016-12-08T10:36:21.087Z,145
2016-12-08T10:37:21.354Z,145
2016-12-08T10:38:21.004Z,145
2016-12-08T10:39:20.656Z,145
2016-12-08T10:40:20.611Z,150
2016-12-08T10:41:21.183Z,155
2016-12-08T10:42:20.835Z,160
2016-12-08T10:43:20.794Z,165
2016-12-08T10:44:20.448Z,175
2016-12-08T10:45:20.713Z,175
2016-12-08T10:46:20.675Z,175
2016-12-08T10:47:20.329Z,165
2016-12-08T10:48:20.593Z,160
2016-12-08T10:49:20.853Z,165
2016-12-08T10:50:20.202Z,180
2016-12-08T10:51:20.761Z,185
2016-12-08T10:52:20.430Z,190
2016-12-08T10:53:20.081Z,190
2016-12-08T10:54:20.345Z,195
2016-12-08T10:55:19.994Z,195
2016-12-08T10:56:20.561Z,195
2016-12-08T10:57:20.523Z,175
2016-12-08T10:58:20.185Z,170
2016-12-08T10:59:20.139Z,170
2016-12-08T11:00:20.395Z,170
2016-12-08T11:01:20.363Z,165
2016-12-08T11:02:20.321Z,165
2016-12-08T11:03:19.669Z,165
2016-12-08T11:04:19.929Z,185
2016-12-08T11:05:19.588Z,200
2016-12-08T11:06:20.155Z,225
2016-12-08T11:07:20.115Z,230
2016-12-08T11:08:19.782Z,245
2016-12-08T11:09:20.038Z,200
2016-12-08T11:10:19.989Z,190
2016-12-08T11:11:19.348Z,180
2016-12-08T11:12:19.627Z,190
2016-12-08T11:13:19.565Z,195
2016-12-08T11:14:19.835Z,195
2016-12-08T11:15:19.784Z,195
2016-12-08T11:16:19.439Z,200
2016-12-08T11:17:19.403Z,210
2016-12-08T11:18:19.070Z,215
2016-12-08T11:19:19.631Z,205
2016-12-08T11:20:19.582Z,205
2016-12-08T11:21:18.939Z,210
2016-12-08T11:22:19.201Z,220
2016-12-08T11:23:19.159Z,235
2016-12-08T11:24:18.536Z,245
2016-12-08T11:25:19.380Z,245
2016-12-08T11:26:19.039Z,225
2016-12-08T11:27:19.306Z,210
2016-12-08T11:28:18.661Z,195
2016-12-08T11:29:18.915Z,185
2016-12-08T11:30:18.875Z,180
2016-12-08T11:31:19.142Z,180
2016-12-08T11:32:18.496Z,180
2016-12-08T11:33:18.756Z,170
2016-12-08T11:34:19.022Z,165
2016-12-08T11:35:18.378Z,165
2016-12-08T11:36:18.958Z,170
2016-12-08T11:37:18.898Z,175
2016-12-08T11:38:18.856Z,185
2016-12-08T11:39:18.516Z,205
2016-12-08T11:40:18.177Z,200
2016-12-08T11:41:17.831Z,200
2016-12-08T11:42:18.704Z,190
2016-12-08T11:43:18.367Z,200
2016-12-08T11:44:18.319Z,200
2016-12-08T11:45:18.276Z,200
2016-12-08T11:46:18.536Z,195
2016-12-08T11:47:18.188Z,205
2016-12-08T11:48:18.153Z,225
2016-12-08T11:49:18.107Z,240
2016-12-08T11:50:18.079Z,225
2016-12-08T11:51:18.028Z,220
2016-12-08T11:52:17.991Z,215
2016-12-08T11:53:17.954Z,215
2016-12-08T11:54:17.913Z,215
2016-12-08T11:55:18.172Z,185
2016-12-08T11:56:18.132Z,165
2016-12-08T11:57:17.484Z,150
2016-12-08T11:58:17.744Z,150
2016-12-08T11:59:17.713Z,150
2016-12-08T12:00:17.678Z,150
2016-12-08T12:01:17.622Z,140
2016-12-08T12:02:17.587Z,140
2016-12-08T12:03:17.552Z,135
2016-12-08T12:04:17.506Z,130
2016-12-08T12:05:17.462Z,130
2016-12-08T12:06:17.127Z,130
2016-12-08T12:07:17.681Z,125
2016-12-08T12:08:17.046Z,125
2016-12-08T12:09:16.996Z,125
2016-12-08T12:10:17.255Z,130
2016-12-08T12:11:17.521Z,130
2016-12-08T12:12:17.179Z,130
2016-12-08T12:13:17.138Z,130
2016-12-08T12:14:17.429Z,135
2016-12-08T12:15:17.359Z,135
2016-12-08T12:16:16.710Z,140
2016-12-08T12:17:16.979Z,140
2016-12-08T12:18:16.931Z,140
2016-12-08T12:19:17.195Z,145
2016-12-08T12:20:16.855Z,155
2016-12-08T12:21:17.104Z,160
2016-12-08T12:22:17.069Z,165
2016-12-08T12:23:17.027Z,160
2016-12-08T12:24:16.985Z,160
2016-12-08T12:25:16.338Z,160
2016-12-08T12:26:16.603Z,155
2016-12-08T12:27:16.267Z,150
2016-12-08T12:28:16.822Z,150
2016-12-08T12:29:16.475Z,150
2016-12-08T12:30:16.744Z,150
2016-12-08T12:31:16.700Z,150
2016-12-08T12:32:16.360Z,145
2016-12-08T12:33:16.318Z,145
2016-12-08T12:34:16.276Z,145
2016-12-08T12:35:16.233Z,145
2016-12-08T12:36:15.593Z,140
2016-12-08T12:37:16.148Z,140
2016-12-08T12:38:16.117Z,140
2016-12-08T12:39:16.071Z,135
2016-12-08T12:40:16.332Z,135
2016-12-08T12:41:15.985Z,135
2016-12-08T12:42:15.943Z,135
2016-12-08T12:43:15.603Z,130
2016-12-08T12:44:15.558Z,130
2016-12-08T12:45:16.121Z,130
2016-12-08T12:46:15.471Z,130
2016-12-08T12:47:16.040Z,130
2016-12-08T12:48:15.390Z,125
2016-12-08T12:49:15.957Z,125
2016-12-08T12:50:15.012Z,125
2016-12-08T12:51:15.873Z,125
2016-12-08T12:52:15.234Z,125
2016-12-08T12:53:15.523Z,125
2016-12-08T12:54:15.447Z,125
2016-12-08T12:55:15.711Z,125
2016-12-08T12:56:15.686Z,125
2016-12-08T12:57:15.327Z,120
2016-12-08T12:58:14.983Z,120
2016-12-08T12:59:15.543Z,120
2016-12-08T13:00:14.594Z,120
2016-12-08T13:01:15.151Z,120
2016-12-08T13:02:14.820Z,120
2016-12-08T13:03:15.077Z,120
2016-12-08T13:04:14.733Z,115
2016-12-08T13:05:15.301Z,115
2016-12-08T13:06:15.252Z,115
2016-12-08T13:07:14.908Z,115
2016-12-08T13:08:14.880Z,115
2016-12-08T13:09:14.826Z,115
2016-12-08T13:10:15.089Z,115
2016-12-08T13:11:14.742Z,115
2016-12-08T13:12:14.706Z,110
2016-12-08T13:13:14.666Z,110
2016-12-08T13:14:14.921Z,110
2016-12-08T13:15:14.582Z,110
2016-12-08T13:16:14.243Z,110
2016-12-08T13:17:14.809Z,110
2016-12-08T13:18:14.780Z,110
2016-12-08T13:19:14.428Z,110
2016-12-08T13:20:14.403Z,105
2016-12-08T13:21:13.724Z,105
2016-12-08T13:22:14.592Z,110
2016-12-08T13:23:14.248Z,105
2016-12-08T13:24:14.204Z,105
2016-12-08T13:25:14.167Z,105
2016-12-08T13:26:14.138Z,105
2016-12-08T13:27:14.083Z,105
2016-12-08T13:28:14.039Z,105
2016-12-08T13:29:14.002Z,100
2016-12-08T13:30:13.965Z,100
2016-12-08T13:31:13.618Z,100
2016-12-08T13:32:13.885Z,100
2016-12-08T13:33:13.834Z,100
2016-12-08T13:34:13.497Z,100
2016-12-08T13:35:14.053Z,100
2016-12-08T13:36:13.711Z,100
2016-12-08T13:37:13.973Z,95
2016-12-08T13:38:13.626Z,95
2016-12-08T13:39:13.301Z,95
2016-12-08T13:40:13.544Z,95
2016-12-08T13:41:13.501Z,95
2016-12-08T13:42:13.466Z,95
2016-12-08T13:43:13.430Z,95
2016-12-08T13:44:12.769Z,95
2016-12-08T13:45:13.645Z,90
2016-12-08T13:46:12.693Z,90
2016-12-08T13:47:13.254Z,90
2016-12-08T13:48:13.247Z,90
2016-12-08T13:49:13.178Z,90
2016-12-08T13:50:13.133Z,90
2016-12-08T13:51:13.087Z,85
2016-12-08T13:52:12.444Z,85
2016-12-08T13:53:13.307Z,85
2016-12-08T13:54:12.968Z,85
2016-12-08T13:55:12.617Z,85
2016-12-08T13:56:13.182Z,85
2016-12-08T13:57:12.841Z,80
2016-12-08T13:58:12.798Z,85
2016-12-08T13:59:13.073Z,85
2016-12-08T14:00:12.720Z,85
2016-12-08T14:01:12.977Z,80
2016-12-08T14:02:12.342Z,80
2016-12-08T14:03:12.298Z,80
2016-12-08T14:04:12.549Z,75
2016-12-08T14:05:12.207Z,70
2016-12-08T14:06:12.457Z,70
2016-12-08T14:07:12.725Z,70
2016-12-08T14:08:12.682Z,70
2016-12-08T14:09:12.335Z,65
2016-12-08T14:10:11.988Z,65
2016-12-08T14:11:12.553Z,65
2016-12-08T14:12:12.510Z,65
2016-12-08T14:13:12.166Z,65
2016-12-08T14:14:12.125Z,65
2016-12-08T14:15:11.780Z,60
2016-12-08T14:16:12.044Z,60
2016-12-08T14:17:12.304Z,60
2016-12-08T14:18:11.656Z,60
2016-12-08T14:19:11.913Z,60
2016-12-08T14:20:11.871Z,60
2016-12-08T14:21:11.831Z,65
2016-12-08T14:22:11.795Z,65